createdAt,value
2023-02-14T00:00:48.627Z,83.18
2023-02-14T00:03:15.396Z,83.42
2023-02-14T00:05:42.022Z,82.96
2023-02-14T00:08:08.511Z,82.84
2023-02-14T00:10:35.080Z,82.61
2023-02-14T00:13:01.679Z,82.49
2023-02-14T00:15:28.208Z,82.67
2023-02-14T00:17:59.515Z,83.42
2023-02-14T00:20:28.111Z,83.23
2023-02-14T00:22:54.886Z,83.00
2023-02-14T00:25:21.699Z,83.12
2023-02-14T00:27:48.359Z,83.16
2023-02-14T00:30:15.263Z,82.52
2023-02-14T00:32:42.630Z,82.47
2023-02-14T00:35:09.944Z,82.78
2023-02-14T00:37:36.927Z,82.94
2023-02-14T00:40:05.596Z,82.43
2023-02-14T00:42:32.102Z,82.57
2023-02-14T00:44:58.619Z,83.94
2023-02-14T00:47:25.247Z,83.67
2023-02-14T00:49:51.812Z,83.71
2023-02-14T00:52:18.466Z,83.25
2023-02-14T00:54:45.230Z,83.12
2023-02-14T00:57:14.027Z,83.70
2023-02-14T00:59:40.611Z,83.63
2023-02-14T01:02:07.311Z,83.64
2023-02-14T01:04:34.387Z,83.40
2023-02-14T01:07:00.981Z,83.22
2023-02-14T01:09:27.804Z,84.30
2023-02-14T01:11:54.323Z,83.89
2023-02-14T01:14:21.014Z,83.94
2023-02-14T01:16:49.394Z,84.95
2023-02-14T01:19:16.694Z,83.97
2023-02-14T01:21:43.779Z,84.49
2023-02-14T01:24:12.031Z,84.07
2023-02-14T01:26:39.393Z,85.59
2023-02-14T01:29:06.607Z,84.67
2023-02-14T01:31:35.403Z,84.48
2023-02-14T01:34:02.616Z,84.54
2023-02-14T01:36:37.317Z,83.74
2023-02-14T01:39:10.950Z,83.84
2023-02-14T01:41:38.900Z,83.87
2023-02-14T01:44:27.368Z,83.70
2023-02-14T01:46:55.242Z,83.69
2023-02-14T01:49:25.415Z,82.69
2023-02-14T01:52:06.263Z,82.64
2023-02-14T01:54:36.031Z,82.92
2023-02-14T01:57:06.437Z,83.24
2023-02-14T01:59:38.694Z,83.76
2023-02-14T02:02:06.002Z,83.31
2023-02-14T02:04:35.754Z,83.58
2023-02-14T02:07:09.281Z,82.74
2023-02-14T02:09:43.578Z,83.33
2023-02-14T02:12:10.407Z,83.60
2023-02-14T02:14:37.312Z,82.63
2023-02-14T02:17:16.642Z,82.44
2023-02-14T02:20:01.965Z,82.64
2023-02-14T02:23:07.055Z,82.45
2023-02-14T02:26:17.282Z,82.23
2023-02-14T02:29:21.855Z,82.58
2023-02-14T02:31:48.752Z,82.29
2023-02-14T02:34:30.035Z,82.22
2023-02-14T02:37:11.723Z,81.90
2023-02-14T02:40:00.857Z,82.34
2023-02-14T02:42:54.510Z,81.81
2023-02-14T02:45:24.035Z,81.55
2023-02-14T02:48:10.748Z,82.03
2023-02-14T02:51:00.355Z,81.95
2023-02-14T02:53:30.160Z,82.66
2023-02-14T02:56:21.403Z,82.35
2023-02-14T02:59:00.189Z,83.04
2023-02-14T03:01:35.380Z,83.87
2023-02-14T03:04:30.993Z,83.02
2023-02-14T03:06:59.958Z,82.70
2023-02-14T03:09:28.119Z,83.31
2023-02-14T03:12:03.874Z,82.10
2023-02-14T03:14:39.980Z,83.05
2023-02-14T03:17:35.869Z,82.11
2023-02-14T03:20:15.299Z,83.31
2023-02-14T03:23:12.831Z,82.99
2023-02-14T03:25:58.326Z,82.50
2023-02-14T03:28:30.793Z,82.73
2023-02-14T03:31:06.522Z,83.02
2023-02-14T03:33:44.226Z,82.90
2023-02-14T03:36:22.051Z,82.34
2023-02-14T03:39:21.522Z,82.72
2023-02-14T03:41:59.792Z,83.19
2023-02-14T03:44:29.163Z,82.77
2023-02-14T03:47:00.503Z,83.07
2023-02-14T03:49:31.958Z,83.63
2023-02-14T03:52:02.702Z,82.59
2023-02-14T03:54:32.702Z,82.93
2023-02-14T03:57:18.187Z,83.24
2023-02-14T03:59:44.885Z,83.99
2023-02-14T04:02:11.357Z,84.03
2023-02-14T04:04:43.894Z,85.60
2023-02-14T04:07:12.654Z,84.50
2023-02-14T04:09:39.834Z,84.59
2023-02-14T04:12:06.887Z,84.85
2023-02-14T04:14:33.629Z,84.08
2023-02-14T04:17:18.601Z,84.51
2023-02-14T04:19:45.151Z,83.85
2023-02-14T04:22:11.765Z,84.25
2023-02-14T04:24:38.603Z,84.27
2023-02-14T04:27:11.179Z,84.39
2023-02-14T04:29:44.321Z,84.74
2023-02-14T04:32:13.919Z,84.42
2023-02-14T04:34:41.064Z,84.80
2023-02-14T04:37:08.397Z,84.60
2023-02-14T04:39:35.537Z,83.70
2023-02-14T04:42:03.453Z,84.70
2023-02-14T04:44:30.063Z,84.38
2023-02-14T04:46:56.883Z,84.64
2023-02-14T04:49:23.489Z,84.96
2023-02-14T04:51:50.004Z,84.92
2023-02-14T04:54:16.552Z,84.69
2023-02-14T04:56:43.208Z,85.58
2023-02-14T04:59:09.977Z,85.10
2023-02-14T05:01:36.643Z,85.52
2023-02-14T05:04:03.807Z,85.49
2023-02-14T05:06:30.380Z,85.53
2023-02-14T05:08:57.095Z,84.54
2023-02-14T05:11:23.627Z,84.72
2023-02-14T05:13:50.779Z,84.58
2023-02-14T05:16:17.636Z,84.12
2023-02-14T05:18:44.281Z,83.48
2023-02-14T05:21:11.258Z,83.38
2023-02-14T05:23:38.108Z,83.53
2023-02-14T05:26:07.057Z,83.85
2023-02-14T05:28:33.944Z,82.85
2023-02-14T05:31:00.950Z,83.40
2023-02-14T05:33:27.997Z,82.90
2023-02-14T05:35:54.571Z,82.70
2023-02-14T05:38:21.159Z,83.01
2023-02-14T05:40:47.711Z,83.87
2023-02-14T05:43:14.492Z,83.14
2023-02-14T05:45:41.083Z,82.97
2023-02-14T05:48:07.727Z,82.63
2023-02-14T05:50:34.403Z,82.60
2023-02-14T05:53:01.947Z,82.93
2023-02-14T05:55:28.647Z,83.20
2023-02-14T05:57:55.212Z,83.86
2023-02-14T06:00:23.865Z,82.92
2023-02-14T06:02:50.821Z,83.06
2023-02-14T06:05:18.249Z,82.51
2023-02-14T06:07:50.438Z,83.24
2023-02-14T06:10:21.752Z,82.68
2023-02-14T06:12:49.933Z,82.99
2023-02-14T06:15:16.903Z,83.05
2023-02-14T06:17:43.819Z,83.04
2023-02-14T06:20:10.936Z,83.42
2023-02-14T06:22:39.094Z,83.09
2023-02-14T06:25:05.892Z,83.17
2023-02-14T06:27:32.985Z,83.53
2023-02-14T06:29:59.624Z,82.43
2023-02-14T06:32:26.408Z,82.97
2023-02-14T06:34:52.920Z,82.41
2023-02-14T06:37:20.138Z,83.04
2023-02-14T06:39:46.733Z,82.86
2023-02-14T06:42:13.290Z,81.91
2023-02-14T06:44:39.834Z,81.87
2023-02-14T06:47:07.938Z,81.53
2023-02-14T06:49:34.638Z,81.53
2023-02-14T06:52:01.107Z,81.59
2023-02-14T06:54:27.655Z,82.45
2023-02-14T06:56:54.169Z,82.25
2023-02-14T06:59:20.764Z,82.61
2023-02-14T07:01:47.357Z,83.01
2023-02-14T07:04:18.615Z,82.00
2023-02-14T07:06:48.207Z,83.19
2023-02-14T07:09:17.734Z,82.73
2023-02-14T07:11:45.590Z,82.09
2023-02-14T07:14:12.562Z,82.56
2023-02-14T07:16:39.504Z,82.50
2023-02-14T07:19:06.078Z,83.04
2023-02-14T07:21:32.591Z,83.10
2023-02-14T07:23:59.105Z,82.27
2023-02-14T07:26:25.647Z,82.29
2023-02-14T07:28:52.244Z,81.81
2023-02-14T07:31:20.058Z,81.95
2023-02-14T07:33:46.782Z,82.67
2023-02-14T07:36:13.392Z,81.33
2023-02-14T07:38:39.889Z,81.00
2023-02-14T07:41:06.718Z,80.53
2023-02-14T07:43:34.419Z,80.64
2023-02-14T07:46:02.758Z,80.73
2023-02-14T07:48:31.965Z,79.65
2023-02-14T07:51:00.595Z,80.22
2023-02-14T07:53:27.360Z,79.49
2023-02-14T07:55:54.312Z,80.94
2023-02-14T07:58:20.835Z,80.78
2023-02-14T08:00:47.630Z,80.44
2023-02-14T08:03:14.598Z,80.75
2023-02-14T08:05:41.162Z,80.36
2023-02-14T08:08:07.761Z,79.68
2023-02-14T08:10:34.381Z,77.75
2023-02-14T08:13:01.094Z,77.84
2023-02-14T08:15:51.917Z,75.95
2023-02-14T08:18:19.927Z,76.06
2023-02-14T08:20:49.698Z,76.44
2023-02-14T08:23:17.810Z,76.26
2023-02-14T08:25:44.518Z,75.87
2023-02-14T08:28:13.769Z,76.24
2023-02-14T08:30:41.722Z,77.24
2023-02-14T08:33:08.241Z,76.59
2023-02-14T08:35:35.563Z,78.19
2023-02-14T08:38:02.213Z,78.51
2023-02-14T08:40:29.206Z,77.23
2023-02-14T08:42:55.895Z,75.88
2023-02-14T08:45:23.066Z,75.12
2023-02-14T08:47:49.655Z,75.46
2023-02-14T08:50:17.751Z,76.06
2023-02-14T08:52:44.517Z,76.99
2023-02-14T08:55:12.399Z,76.59
2023-02-14T08:57:39.596Z,75.87
2023-02-14T09:00:07.686Z,76.48
2023-02-14T09:02:34.508Z,77.38
2023-02-14T09:05:01.374Z,76.85
2023-02-14T09:07:27.922Z,77.28
2023-02-14T09:09:54.701Z,76.14
2023-02-14T09:12:21.301Z,76.80
2023-02-14T09:14:47.896Z,76.67
2023-02-14T09:17:16.162Z,75.88
2023-02-14T09:19:43.653Z,76.37
2023-02-14T09:22:11.448Z,77.46
2023-02-14T09:24:40.076Z,77.62
2023-02-14T09:27:07.227Z,76.78
2023-02-14T09:29:34.262Z,76.39
2023-02-14T09:32:02.461Z,76.05
2023-02-14T09:34:35.375Z,75.96
2023-02-14T09:37:02.185Z,76.90
2023-02-14T09:39:28.708Z,77.18
2023-02-14T09:42:15.399Z,77.45
2023-02-14T09:44:45.232Z,79.21
2023-02-14T09:47:22.031Z,78.11
2023-02-14T09:49:50.503Z,78.32
2023-02-14T09:52:20.840Z,78.51
2023-02-14T09:54:55.019Z,77.30
2023-02-14T09:57:28.495Z,76.89
2023-02-14T10:00:33.810Z,76.21
2023-02-14T10:03:32.807Z,75.59
2023-02-14T10:06:14.627Z,76.06
2023-02-14T10:08:56.481Z,75.23
2023-02-14T10:11:27.359Z,75.95
2023-02-14T10:14:03.969Z,75.48
2023-02-14T10:16:40.337Z,76.28
2023-02-14T10:19:28.415Z,75.13
2023-02-14T10:22:00.455Z,75.70
2023-02-14T10:24:57.391Z,75.44
2023-02-14T10:27:35.263Z,75.24
2023-02-14T10:30:12.081Z,76.15
2023-02-14T10:32:45.937Z,74.69
2023-02-14T10:35:29.838Z,74.98
2023-02-14T10:38:02.392Z,74.37
2023-02-14T10:40:47.726Z,74.69
2023-02-14T10:43:29.991Z,74.55
2023-02-14T10:46:02.816Z,74.75
2023-02-14T10:48:39.339Z,74.64
2023-02-14T10:51:33.450Z,75.89
2023-02-14T10:54:06.536Z,75.62
2023-02-14T10:56:39.723Z,75.38
2023-02-14T10:59:24.354Z,76.04
2023-02-14T11:01:56.368Z,75.36
2023-02-14T11:04:25.416Z,75.29
2023-02-14T11:06:52.740Z,75.56
2023-02-14T11:09:20.383Z,74.92
2023-02-14T11:11:59.075Z,76.11
2023-02-14T11:14:35.934Z,75.80
2023-02-14T11:17:30.172Z,75.79
2023-02-14T11:20:02.638Z,74.91
2023-02-14T11:22:30.905Z,76.31
2023-02-14T11:25:05.039Z,75.19
2023-02-14T11:27:32.184Z,75.16
2023-02-14T11:30:01.852Z,75.37
2023-02-14T11:32:31.783Z,75.36
2023-02-14T11:35:26.911Z,74.12
2023-02-14T11:37:56.575Z,74.86
2023-02-14T11:40:28.878Z,73.99
2023-02-14T11:43:13.337Z,74.20
2023-02-14T11:45:43.795Z,74.94
2023-02-14T11:48:37.113Z,74.62
2023-02-14T11:51:14.636Z,74.61
2023-02-14T11:53:48.602Z,75.17
2023-02-14T11:56:17.554Z,75.26
2023-02-14T11:58:50.299Z,74.87
2023-02-14T12:01:29.828Z,74.50
2023-02-14T12:04:00.707Z,75.13
2023-02-14T12:06:33.989Z,74.39
2023-02-14T12:09:23.806Z,75.18
2023-02-14T12:12:14.762Z,75.92
2023-02-14T12:14:41.451Z,75.20
2023-02-14T12:17:34.594Z,74.81
2023-02-14T12:20:15.302Z,74.52
2023-02-14T12:23:12.897Z,74.79
2023-02-14T12:25:50.605Z,75.50
2023-02-14T12:28:25.908Z,74.47
2023-02-14T12:30:52.644Z,74.88
2023-02-14T12:33:21.879Z,74.46
2023-02-14T12:36:09.021Z,74.35
2023-02-14T12:38:39.426Z,75.50
2023-02-14T12:41:20.696Z,74.94
2023-02-14T12:43:50.998Z,75.39
2023-02-14T12:46:40.332Z,74.97
2023-02-14T12:49:19.153Z,75.11
2023-02-14T12:51:56.905Z,74.51
2023-02-14T12:54:44.918Z,74.68
2023-02-14T12:57:28.645Z,74.40
2023-02-14T13:00:14.783Z,74.65
2023-02-14T13:02:44.592Z,74.74
2023-02-14T13:05:14.203Z,74.63
2023-02-14T13:07:46.952Z,75.04
2023-02-14T13:10:38.480Z,74.88
2023-02-14T13:13:25.896Z,74.97
2023-02-14T13:16:06.544Z,74.69
2023-02-14T13:18:45.364Z,74.43
2023-02-14T13:21:16.812Z,74.44
2023-02-14T13:23:48.801Z,73.35
2023-02-14T13:26:34.887Z,73.66
2023-02-14T13:29:07.014Z,73.58
2023-02-14T13:31:34.043Z,74.06
2023-02-14T13:34:09.750Z,74.20
2023-02-14T13:36:37.509Z,74.01
2023-02-14T13:39:04.720Z,74.40
2023-02-14T13:41:31.749Z,74.60
2023-02-14T13:44:02.453Z,73.88
2023-02-14T13:46:32.182Z,74.74
2023-02-14T13:49:02.373Z,75.29
2023-02-14T13:52:05.650Z,74.59
2023-02-14T13:54:46.337Z,74.13
2023-02-14T13:57:36.536Z,74.44
2023-02-14T14:00:21.386Z,75.69
2023-02-14T14:02:52.846Z,75.21
2023-02-14T14:05:39.532Z,75.61
2023-02-14T14:08:35.168Z,75.84
2023-02-14T14:11:21.585Z,75.80
2023-02-14T14:13:58.475Z,75.74
2023-02-14T14:16:28.438Z,76.74
2023-02-14T14:19:17.106Z,76.73
2023-02-14T14:21:45.474Z,77.13
2023-02-14T14:24:27.668Z,76.96
2023-02-14T14:26:57.135Z,75.71
2023-02-14T14:29:34.923Z,76.76
2023-02-14T14:32:15.442Z,76.53
2023-02-14T14:34:56.166Z,76.90
2023-02-14T14:37:26.237Z,76.83
2023-02-14T14:40:06.031Z,76.71
2023-02-14T14:42:37.751Z,77.72
2023-02-14T14:45:08.506Z,77.30
2023-02-14T14:47:41.956Z,77.55
2023-02-14T14:50:34.059Z,77.64
2023-02-14T14:53:06.743Z,78.84
2023-02-14T14:55:36.092Z,78.40
2023-02-14T14:58:06.128Z,77.94
2023-02-14T15:00:35.456Z,77.93
2023-02-14T15:03:06.024Z,78.31
2023-02-14T15:05:39.108Z,77.60
2023-02-14T15:08:24.549Z,78.31
2023-02-14T15:11:00.318Z,78.72
2023-02-14T15:13:49.792Z,78.44
2023-02-14T15:16:23.136Z,78.70
2023-02-14T15:18:51.733Z,79.79
2023-02-14T15:21:18.505Z,79.73
2023-02-14T15:23:45.886Z,78.86
2023-02-14T15:26:32.857Z,79.95
2023-02-14T15:29:02.211Z,79.89
2023-02-14T15:31:36.785Z,80.53
2023-02-14T15:34:04.794Z,79.86
2023-02-14T15:36:33.886Z,80.47
2023-02-14T15:39:07.981Z,80.43
2023-02-14T15:41:34.638Z,79.83
2023-02-14T15:44:01.461Z,81.39
2023-02-14T15:46:36.212Z,80.78
2023-02-14T15:49:09.181Z,81.28
2023-02-14T15:51:36.747Z,81.16
2023-02-14T15:54:28.254Z,81.01
2023-02-14T15:56:56.614Z,81.17
2023-02-14T15:59:29.598Z,81.04
2023-02-14T16:02:03.766Z,81.22
2023-02-14T16:04:32.449Z,81.91
2023-02-14T16:07:32.262Z,81.36
2023-02-14T16:10:22.430Z,81.37
2023-02-14T16:12:57.771Z,82.77
2023-02-14T16:15:27.757Z,82.62
2023-02-14T16:17:54.379Z,83.40
2023-02-14T16:20:29.279Z,82.79
2023-02-14T16:23:23.193Z,83.70
2023-02-14T16:25:50.207Z,82.46
2023-02-14T16:28:17.237Z,82.74
2023-02-14T16:30:45.939Z,82.82
2023-02-14T16:33:22.617Z,83.68
2023-02-14T16:35:50.327Z,84.07
2023-02-14T16:38:19.574Z,83.31
2023-02-14T16:40:55.448Z,83.48
2023-02-14T16:43:21.991Z,83.11
2023-02-14T16:45:49.118Z,83.53
2023-02-14T16:48:16.070Z,83.22
2023-02-14T16:50:43.332Z,83.88
2023-02-14T16:53:24.075Z,83.18
2023-02-14T16:55:56.221Z,83.68
2023-02-14T16:58:29.797Z,84.80
2023-02-14T17:00:58.585Z,84.14
2023-02-14T17:03:25.434Z,84.51
2023-02-14T17:05:54.594Z,84.65
2023-02-14T17:08:21.552Z,84.12
2023-02-14T17:10:48.789Z,83.47
2023-02-14T17:13:23.892Z,84.63
2023-02-14T17:15:51.033Z,84.50
2023-02-14T17:18:20.404Z,83.46
2023-02-14T17:20:47.815Z,83.59
2023-02-14T17:23:15.358Z,84.36
2023-02-14T17:25:41.997Z,83.26
2023-02-14T17:28:08.513Z,83.54
2023-02-14T17:30:35.335Z,84.17
2023-02-14T17:33:02.053Z,83.42
2023-02-14T17:35:28.720Z,83.24
2023-02-14T17:37:55.346Z,83.72
2023-02-14T17:40:22.007Z,84.30
2023-02-14T17:42:48.636Z,83.54
2023-02-14T17:45:15.319Z,84.34
2023-02-14T17:47:43.340Z,84.09
2023-02-14T17:50:10.423Z,84.15
2023-02-14T17:52:37.875Z,84.44
2023-02-14T17:55:04.896Z,84.20
2023-02-14T17:57:31.443Z,84.81
2023-02-14T18:00:01.887Z,84.19
2023-02-14T18:02:28.629Z,82.97
2023-02-14T18:04:55.192Z,83.28
2023-02-14T18:07:23.659Z,83.54
2023-02-14T18:09:50.652Z,84.06
2023-02-14T18:12:17.670Z,83.75
2023-02-14T18:14:44.356Z,84.86
2023-02-14T18:17:14.041Z,84.49
2023-02-14T18:19:40.608Z,84.57
2023-02-14T18:22:07.292Z,84.07
2023-02-14T18:24:33.890Z,84.22
2023-02-14T18:27:00.418Z,84.22
2023-02-14T18:29:26.997Z,83.59
2023-02-14T18:31:57.137Z,84.88
2023-02-14T18:34:23.976Z,84.61
2023-02-14T18:36:50.533Z,84.27
2023-02-14T18:39:17.353Z,84.56
2023-02-14T18:41:43.923Z,84.39
2023-02-14T18:44:10.536Z,84.27
2023-02-14T18:46:37.466Z,84.86
2023-02-14T18:49:07.021Z,84.13
2023-02-14T18:51:37.437Z,83.75
2023-02-14T18:54:04.676Z,83.99
2023-02-14T18:56:33.963Z,84.85
2023-02-14T18:59:07.150Z,84.31
2023-02-14T19:01:36.761Z,84.67
2023-02-14T19:04:06.323Z,85.10
2023-02-14T19:06:34.110Z,83.99
2023-02-14T19:09:01.644Z,84.30
2023-02-14T19:11:31.964Z,85.11
2023-02-14T19:14:00.823Z,84.62
2023-02-14T19:16:34.106Z,85.48
2023-02-14T19:19:02.686Z,84.36
2023-02-14T19:21:31.734Z,84.05
2023-02-14T19:23:58.683Z,83.93
2023-02-14T19:26:32.865Z,83.64
2023-02-14T19:29:00.315Z,84.08
2023-02-14T19:31:27.769Z,84.11
2023-02-14T19:33:54.581Z,84.19
2023-02-14T19:36:22.897Z,83.41
2023-02-14T19:38:51.723Z,84.60
2023-02-14T19:41:24.096Z,84.53
2023-02-14T19:43:52.576Z,84.21
2023-02-14T19:46:21.111Z,83.85
2023-02-14T19:48:48.780Z,83.67
2023-02-14T19:51:27.704Z,84.24
2023-02-14T19:53:55.894Z,83.43
2023-02-14T19:56:25.424Z,83.45
2023-02-14T19:58:52.876Z,83.81
2023-02-14T20:01:39.370Z,84.21
2023-02-14T20:04:11.035Z,83.89
2023-02-14T20:06:38.932Z,83.97
2023-02-14T20:09:06.470Z,84.23
2023-02-14T20:11:35.605Z,84.96
2023-02-14T20:14:04.014Z,84.79
2023-02-14T20:16:33.239Z,83.90
2023-02-14T20:19:12.224Z,83.30
2023-02-14T20:21:41.915Z,84.05
2023-02-14T20:24:09.508Z,83.95
2023-02-14T20:26:39.534Z,83.00
2023-02-14T20:29:07.164Z,84.31
2023-02-14T20:31:34.510Z,83.30
2023-02-14T20:34:01.503Z,84.74
2023-02-14T20:36:28.654Z,85.33
2023-02-14T20:38:56.479Z,84.84
2023-02-14T20:41:24.104Z,85.61
2023-02-14T20:43:50.871Z,84.65
2023-02-14T20:46:17.799Z,85.63
2023-02-14T20:48:44.665Z,84.32
2023-02-14T20:51:16.836Z,84.48
2023-02-14T20:53:44.846Z,83.61
2023-02-14T20:56:12.393Z,84.39
2023-02-14T20:58:40.512Z,84.45
2023-02-14T21:01:11.583Z,85.46
2023-02-14T21:03:38.301Z,84.37
2023-02-14T21:06:06.811Z,84.15
2023-02-14T21:08:33.963Z,84.65
2023-02-14T21:11:00.982Z,84.96
2023-02-14T21:13:27.924Z,85.27
2023-02-14T21:15:54.805Z,85.28
2023-02-14T21:18:21.723Z,85.65
2023-02-14T21:20:48.359Z,85.93
2023-02-14T21:23:14.981Z,85.52
2023-02-14T21:25:41.488Z,84.53
2023-02-14T21:28:08.318Z,85.64
2023-02-14T21:30:35.209Z,86.03
2023-02-14T21:33:02.497Z,86.56
2023-02-14T21:35:29.179Z,85.22
2023-02-14T21:37:56.018Z,84.62
2023-02-14T21:40:24.650Z,84.92
2023-02-14T21:42:51.397Z,85.00
2023-02-14T21:45:36.762Z,84.31
2023-02-14T21:48:22.036Z,84.04
2023-02-14T21:50:48.626Z,84.54
2023-02-14T21:53:15.430Z,85.10
2023-02-14T21:55:42.845Z,84.12
2023-02-14T21:58:09.473Z,85.54
2023-02-14T22:00:35.996Z,85.69
2023-02-14T22:03:02.678Z,85.14
2023-02-14T22:05:29.590Z,85.30
2023-02-14T22:07:56.120Z,84.39
2023-02-14T22:10:22.627Z,84.21
2023-02-14T22:12:49.145Z,83.63
2023-02-14T22:15:15.853Z,83.71
2023-02-14T22:17:42.369Z,83.37
2023-02-14T22:20:10.360Z,85.00
2023-02-14T22:22:36.917Z,85.55
2023-02-14T22:25:03.531Z,85.59
2023-02-14T22:27:30.161Z,84.34
2023-02-14T22:29:56.675Z,84.11
2023-02-14T22:32:23.325Z,83.67
2023-02-14T22:34:49.862Z,84.31
2023-02-14T22:37:16.359Z,85.02
2023-02-14T22:39:43.007Z,85.44
2023-02-14T22:42:10.003Z,85.01
2023-02-14T22:44:36.505Z,84.52
2023-02-14T22:47:03.036Z,84.57
2023-02-14T22:49:29.639Z,84.81
2023-02-14T22:51:56.142Z,84.98
2023-02-14T22:54:23.157Z,85.09
2023-02-14T22:56:53.527Z,84.96
2023-02-14T22:59:25.439Z,85.49
2023-02-14T23:01:53.517Z,85.52
2023-02-14T23:04:21.898Z,85.48
2023-02-14T23:06:48.923Z,84.43
2023-02-14T23:09:15.880Z,84.75
2023-02-14T23:11:44.093Z,84.78
2023-02-14T23:14:34.260Z,84.96
2023-02-14T23:17:16.132Z,84.69
2023-02-14T23:20:02.203Z,85.37
2023-02-14T23:22:33.328Z,85.44
2023-02-14T23:25:03.706Z,84.19
2023-02-14T23:27:35.294Z,84.55
2023-02-14T23:30:02.988Z,84.81
2023-02-14T23:32:29.586Z,84.92
2023-02-14T23:34:56.091Z,84.39
2023-02-14T23:37:22.595Z,83.87
2023-02-14T23:39:49.558Z,84.02
2023-02-14T23:42:16.423Z,84.33
2023-02-14T23:44:44.268Z,83.74
2023-02-14T23:47:12.458Z,83.62
2023-02-14T23:49:40.533Z,83.32
2023-02-14T23:52:09.635Z,83.93
2023-02-14T23:54:36.951Z,83.96
2023-02-14T23:57:04.423Z,84.03
2023-02-14T23:59:31.426Z,83.52
